Time;durP1;ratioP1;P1;durP2;ratioP2;P2;SDS_P1;SDS_P2;PMS_P1;PMS_P2;Temp;Humidity;BMP_temperature;BMP_pressure;BME280_temperature;BME280_humidity;BME280_pressure;Samples;Min_cycle;Max_cycle;Signal;HPM_P1;HPM_P2
2023/11/20 00:01:07;;;;;;;;;;;;;;;;;;4921391;29;19911;-78
2023/11/20 00:03:33;;;;;;;;;;;;;;;;;;4936710;29;19973;-79
2023/11/20 00:06:00;;;;;;;;;;;;;;;;;;4936731;29;19921;-79
2023/11/20 00:08:27;;;;;;;;;;;;;;;;;;4921133;29;20282;-78
2023/11/20 00:10:55;;;;;;;;;;;;;;;;;;4936326;29;19915;-78
2023/11/20 00:13:22;;;;;;;;;;;;;;;;;;4936026;29;19927;-78
2023/11/20 00:15:47;;;;;;;;;;;;;;;;;;4920484;29;19962;-78
2023/11/20 00:18:13;;;;;;;;;;;;;;;;;;4937366;29;19974;-77
2023/11/20 00:20:38;;;;;;;;;;;;;;;;;;4936885;29;20293;-78
2023/11/20 00:23:04;;;;;;;;;;;;;;;;;;4920779;29;20065;-79
2023/11/20 00:25:29;;;;;;;;;;;;;;;;;;4936765;29;19919;-79
2023/11/20 00:27:55;;;;;;;;;;;;;;;;;;4936894;29;19922;-78
2023/11/20 00:30:21;;;;;;;;;;;;;;;;;;4937851;29;20426;-78
2023/11/20 00:32:46;;;;;;;;;;;;;;;;;;4938348;29;19919;-78
2023/11/20 00:35:16;;;;;;;;;;;;;;;;;;4945461;29;19919;-79
2023/11/20 00:37:41;;;;;;;;;;;;;;;;;;4941891;29;20369;-79
2023/11/20 00:40:07;;;;;;;;;;;;;;;;;;4939306;29;19915;-78
2023/11/20 00:42:32;;;;;;;;;;;;;;;;;;4921201;29;19919;-78
2023/11/20 00:44:58;;;;;;;;;;;;;;;;;;4936478;29;19922;-78
2023/11/20 00:47:24;;;;;;;;;;;;;;;;;;4936063;29;19935;-78
2023/11/20 00:49:49;;;;;;;;;;;;;;;;;;4925099;29;19921;-78
2023/11/20 00:52:15;;;;;;;;;;;;;;;;;;4939773;29;19919;-79
2023/11/20 00:54:43;;;;;;;;;;;;;;;;;;4937626;29;19919;-79
2023/11/20 00:57:08;;;;;;;;;;;;;;;;;;4920124;29;19986;-79
2023/11/20 00:59:34;;;;;;;;;;;;;;;;;;4920416;29;20422;-78
2023/11/20 01:01:59;;;;;;;;;;;;;;;;;;4935858;29;19922;-79
2023/11/20 01:04:25;;;;;;;;;;;;;;;;;;4936607;29;19915;-79
2023/11/20 01:06:50;;;;;;;;;;;;;;;;;;4935778;29;19936;-79
2023/11/20 01:09:16;;;;;;;;;;;;;;;;;;4920515;29;19918;-79
2023/11/20 01:11:42;;;;;;;;;;;;;;;;;;4936055;29;19966;-78
2023/11/20 01:14:08;;;;;;;;;;;;;;;;;;4921094;29;19915;-79
2023/11/20 01:16:33;;;;;;;;;;;;;;;;;;4921762;29;19910;-78
2023/11/20 01:19:03;;;;;;;;;;;;;;;;;;4940707;29;19930;-79
2023/11/20 01:21:28;;;;;;;;;;;;;;;;;;4928209;29;19915;-78
2023/11/20 01:23:54;;;;;;;;;;;;;;;;;;4945722;29;19937;-79
2023/11/20 01:26:19;;;;;;;;;;;;;;;;;;4947740;29;19942;-79
2023/11/20 01:28:45;;;;;;;;;;;;;;;;;;4931590;29;19970;-80
2023/11/20 01:31:10;;;;;;;;;;;;;;;;;;4952931;29;19922;-80
2023/11/20 01:33:36;;;;;;;;;;;;;;;;;;4952096;29;19915;-79
2023/11/20 01:36:02;;;;;;;;;;;;;;;;;;4952437;29;19923;-79
2023/11/20 01:38:27;;;;;;;;;;;;;;;;;;4935952;29;19919;-79
2023/11/20 01:40:56;;;;;;;;;;;;;;;;;;4935528;29;19982;-78
2023/11/20 01:43:21;;;;;;;;;;;;;;;;;;4953511;29;19895;-80
2023/11/20 01:45:47;;;;;;;;;;;;;;;;;;4956111;29;19915;-79
2023/11/20 01:48:13;;;;;;;;;;;;;;;;;;4948432;29;19946;-80
2023/11/20 01:50:41;;;;;;;;;;;;;;;;;;4940601;29;19917;-80
2023/11/20 01:53:06;;;;;;;;;;;;;;;;;;4940234;29;20224;-79
2023/11/20 01:55:32;;;;;;;;;;;;;;;;;;4922417;29;19919;-80
2023/11/20 01:57:58;;;;;;;;;;;;;;;;;;4938189;29;19914;-80
2023/11/20 02:00:27;;;;;;;;;;;;;;;;;;4937931;29;19922;-80
2023/11/20 02:02:52;;;;;;;;;;;;;;;;;;4937791;29;19954;-78
2023/11/20 02:05:19;;;;;;;;;;;;;;;;;;4937701;29;19963;-79
2023/11/20 02:07:44;;;;;;;;;;;;;;;;;;4938357;29;20310;-80
2023/11/20 02:10:10;;;;;;;;;;;;;;;;;;4938381;29;20051;-81
2023/11/20 02:12:36;;;;;;;;;;;;;;;;;;4938237;29;19919;-81
2023/11/20 02:15:02;;;;;;;;;;;;;;;;;;4937970;29;20074;-81
2023/11/20 02:17:29;;;;;;;;;;;;;;;;;;4938665;29;20406;-81
2023/11/20 02:19:54;;;;;;;;;;;;;;;;;;4939949;29;19919;-82
2023/11/20 02:22:20;;;;;;;;;;;;;;;;;;4954193;28;20406;-81
2023/11/20 02:24:45;;;;;;;;;;;;;;;;;;4942804;29;19942;-81
2023/11/20 02:27:10;;;;;;;;;;;;;;;;;;4943059;29;19954;-81
2023/11/20 02:29:36;;;;;;;;;;;;;;;;;;4943841;28;19921;-81
2023/11/20 02:32:01;;;;;;;;;;;;;;;;;;4961719;28;19919;-82
2023/11/20 02:34:29;;;;;;;;;;;;;;;;;;4962420;28;20374;-79
2023/11/20 02:36:55;;;;;;;;;;;;;;;;;;4932015;28;20018;-80
2023/11/20 02:39:20;;;;;;;;;;;;;;;;;;4947170;29;19911;-79
2023/11/20 02:41:46;;;;;;;;;;;;;;;;;;4948797;29;19922;-80
2023/11/20 02:44:12;;;;;;;;;;;;;;;;;;4934026;29;19921;-80
2023/11/20 02:46:37;;;;;;;;;;;;;;;;;;4925698;29;20341;-81
2023/11/20 02:49:02;;;;;;;;;;;;;;;;;;4925387;28;19914;-81
2023/11/20 02:51:28;;;;;;;;;;;;;;;;;;4941214;29;20040;-81
2023/11/20 02:53:53;;;;;;;;;;;;;;;;;;4957003;28;20333;-81
2023/11/20 02:56:19;;;;;;;;;;;;;;;;;;4937665;29;19922;-81
2023/11/20 02:58:45;;;;;;;;;;;;;;;;;;4939608;29;19922;-81
2023/11/20 03:01:15;;;;;;;;;;;;;;;;;;4937662;29;19965;-81
2023/11/20 03:03:40;;;;;;;;;;;;;;;;;;4937401;29;20162;-80
2023/11/20 03:06:06;;;;;;;;;;;;;;;;;;4936854;29;20322;-81
2023/11/20 03:08:33;;;;;;;;;;;;;;;;;;4937230;29;19920;-81
2023/11/20 03:10:59;;;;;;;;;;;;;;;;;;4936604;29;19918;-80
2023/11/20 03:13:25;;;;;;;;;;;;;;;;;;4936552;29;19925;-81
2023/11/20 03:15:50;;;;;;;;;;;;;;;;;;4937738;29;19915;-81
2023/11/20 03:18:16;;;;;;;;;;;;;;;;;;4937041;29;19911;-80
2023/11/20 03:20:42;;;;;;;;;;;;;;;;;;4941678;28;20401;-81
2023/11/20 03:23:07;;;;;;;;;;;;;;;;;;4959085;28;20065;-81
2023/11/20 03:25:33;;;;;;;;;;;;;;;;;;4974632;28;20001;-81
2023/11/20 03:27:59;;;;;;;;;;;;;;;;;;4959418;28;20374;-81
2023/11/20 03:30:24;;;;;;;;;;;;;;;;;;4943800;28;19915;-80
2023/11/20 03:32:50;;;;;;;;;;;;;;;;;;4982383;28;19977;-81
2023/11/20 03:35:16;;;;;;;;;;;;;;;;;;4954121;28;20331;-82
2023/11/20 03:37:42;;;;;;;;;;;;;;;;;;4985142;28;19918;-80
2023/11/20 03:40:08;;;;;;;;;;;;;;;;;;4977856;28;19918;-80
2023/11/20 03:42:35;;;;;;;;;;;;;;;;;;4958241;28;20477;-80
2023/11/20 03:45:01;;;;;;;;;;;;;;;;;;4977063;28;19922;-80
2023/11/20 03:47:27;;;;;;;;;;;;;;;;;;4959068;28;19961;-80
2023/11/20 03:49:52;;;;;;;;;;;;;;;;;;4975774;28;19918;-80
2023/11/20 03:52:18;;;;;;;;;;;;;;;;;;4958904;28;20301;-80
2023/11/20 03:54:43;;;;;;;;;;;;;;;;;;4959584;28;19914;-80
2023/11/20 03:57:09;;;;;;;;;;;;;;;;;;4932094;29;20268;-80
2023/11/20 03:59:34;;;;;;;;;;;;;;;;;;4938423;29;19919;-81
2023/11/20 04:02:00;;;;;;;;;;;;;;;;;;4939565;29;19918;-80
2023/11/20 04:04:27;;;;;;;;;;;;;;;;;;4925238;29;19915;-79
2023/11/20 04:06:52;;;;;;;;;;;;;;;;;;4925084;29;20342;-80
2023/11/20 04:09:19;;;;;;;;;;;;;;;;;;4942125;29;19915;-80
2023/11/20 04:11:45;;;;;;;;;;;;;;;;;;4924748;29;19918;-80
2023/11/20 04:14:11;;;;;;;;;;;;;;;;;;4940413;29;20338;-80
2023/11/20 04:16:36;;;;;;;;;;;;;;;;;;4940583;29;20271;-79
2023/11/20 04:19:03;;;;;;;;;;;;;;;;;;4938486;29;19915;-80
2023/11/20 04:21:30;;;;;;;;;;;;;;;;;;4942296;28;20381;-80
2023/11/20 04:23:58;;;;;;;;;;;;;;;;;;4940878;29;19941;-80
2023/11/20 04:26:26;;;;;;;;;;;;;;;;;;4961057;28;19910;-79
2023/11/20 04:28:52;;;;;;;;;;;;;;;;;;4960286;29;20013;-80
2023/11/20 04:31:17;;;;;;;;;;;;;;;;;;4943464;28;20008;-80
2023/11/20 04:33:43;;;;;;;;;;;;;;;;;;4940940;29;20426;-80
2023/11/20 04:36:09;;;;;;;;;;;;;;;;;;4940639;29;19914;-80
2023/11/20 04:38:35;;;;;;;;;;;;;;;;;;4939451;29;20291;-80
2023/11/20 04:41:01;;;;;;;;;;;;;;;;;;4939470;29;19942;-80
2023/11/20 04:43:26;;;;;;;;;;;;;;;;;;4939892;29;19914;-80
2023/11/20 04:45:51;;;;;;;;;;;;;;;;;;4955082;28;19921;-80
2023/11/20 04:48:17;;;;;;;;;;;;;;;;;;4922914;29;19918;-79
2023/11/20 04:50:42;;;;;;;;;;;;;;;;;;4955753;28;19925;-79
2023/11/20 04:53:08;;;;;;;;;;;;;;;;;;4938353;29;19965;-79
2023/11/20 04:55:34;;;;;;;;;;;;;;;;;;4938134;29;19918;-80
2023/11/20 04:57:59;;;;;;;;;;;;;;;;;;4936875;29;19922;-79
2023/11/20 05:00:25;;;;;;;;;;;;;;;;;;4920701;29;19965;-80
2023/11/20 05:02:51;;;;;;;;;;;;;;;;;;4938164;29;19915;-80
2023/11/20 05:05:17;;;;;;;;;;;;;;;;;;4920826;29;19934;-80
2023/11/20 05:07:42;;;;;;;;;;;;;;;;;;4921185;29;19919;-79
2023/11/20 05:10:08;;;;;;;;;;;;;;;;;;4922030;29;19922;-80
2023/11/20 05:12:33;;;;;;;;;;;;;;;;;;4939976;29;19943;-80
2023/11/20 05:14:59;;;;;;;;;;;;;;;;;;4942644;29;19918;-80
2023/11/20 05:17:24;;;;;;;;;;;;;;;;;;4945491;29;19915;-80
2023/11/20 05:19:49;;;;;;;;;;;;;;;;;;4944931;29;19915;-80
2023/11/20 05:22:15;;;;;;;;;;;;;;;;;;4940524;29;19921;-79
2023/11/20 05:24:42;;;;;;;;;;;;;;;;;;4965915;28;19918;-79
2023/11/20 05:27:08;;;;;;;;;;;;;;;;;;4947833;29;19911;-79
2023/11/20 05:29:37;;;;;;;;;;;;;;;;;;4962421;28;19915;-80
2023/11/20 05:32:02;;;;;;;;;;;;;;;;;;4941652;29;19929;-80
2023/11/20 05:34:28;;;;;;;;;;;;;;;;;;4940564;29;19937;-79
2023/11/20 05:36:55;;;;;;;;;;;;;;;;;;4924172;29;19922;-78
2023/11/20 05:39:21;;;;;;;;;;;;;;;;;;4955244;29;19910;-79
2023/11/20 05:41:46;;;;;;;;;;;;;;;;;;4955390;28;19937;-79
2023/11/20 05:44:13;;;;;;;;;;;;;;;;;;4939719;28;19915;-79
2023/11/20 05:46:38;;;;;;;;;;;;;;;;;;4964937;23;20312;-78
2023/11/20 05:49:04;;;;;;;;;;;;;;;;;;4974649;28;20047;-78
2023/11/20 05:51:30;;;;;;;;;;;;;;;;;;4974451;28;19918;-78
2023/11/20 05:53:57;;;;;;;;;;;;;;;;;;4974422;28;19914;-77
2023/11/20 05:56:23;;;;;;;;;;;;;;;;;;4966453;28;19915;-77
2023/11/20 05:58:50;;;;;;;;;;;;;;;;;;4956587;28;19918;-77
2023/11/20 06:01:16;;;;;;;;;;;;;;;;;;4963845;28;19918;-77
2023/11/20 06:03:41;;;;;;;;;;;;;;;;;;4978626;28;19914;-76
2023/11/20 06:06:07;;;;;;;;;;;;;;;;;;4992896;28;19978;-77
2023/11/20 06:08:32;;;;;;;;;;;;;;;;;;4987274;28;20529;-77
2023/11/20 06:10:57;;;;;;;;;;;;;;;;;;4967996;28;19914;-78
2023/11/20 06:13:24;;;;;;;;;;;;;;;;;;4993456;28;19967;-78
2023/11/20 06:15:50;;;;;;;;;;;;;;;;;;4987107;28;20273;-77
2023/11/20 06:18:15;;;;;;;;;;;;;;;;;;4988529;28;19953;-78
2023/11/20 06:20:41;;;;;;;;;;;;;;;;;;4988380;28;19914;-77
2023/11/20 06:23:08;;;;;;;;;;;;;;;;;;4961340;28;19914;-77
2023/11/20 06:25:35;;;;;;;;;;;;;;;;;;4976204;28;19914;-78
2023/11/20 06:28:01;;;;;;;;;;;;;;;;;;4962559;28;19910;-77
2023/11/20 06:30:26;;;;;;;;;;;;;;;;;;4978271;28;19914;-76
2023/11/20 06:32:51;;;;;;;;;;;;;;;;;;4978617;28;19993;-78
2023/11/20 06:35:18;;;;;;;;;;;;;;;;;;4976310;28;19921;-78
2023/11/20 06:37:47;;;;;;;;;;;;;;;;;;4976778;28;19937;-78
2023/11/20 06:40:12;;;;;;;;;;;;;;;;;;4976447;28;19910;-78
2023/11/20 06:42:39;;;;;;;;;;;;;;;;;;4976167;28;19918;-77
2023/11/20 06:45:05;;;;;;;;;;;;;;;;;;4977249;28;20408;-78
2023/11/20 06:47:30;;;;;;;;;;;;;;;;;;4977745;28;19925;-76
2023/11/20 06:49:56;;;;;;;;;;;;;;;;;;4976813;28;19965;-78
2023/11/20 06:52:23;;;;;;;;;;;;;;;;;;4976554;28;20509;-76
2023/11/20 06:54:49;;;;;;;;;;;;;;;;;;4976213;28;19942;-76
2023/11/20 06:57:14;;;;;;;;;;;;;;;;;;4977922;28;19926;-77
2023/11/20 06:59:39;;;;;;;;;;;;;;;;;;4977918;28;19957;-77
2023/11/20 07:02:09;;;;;;;;;;;;;;;;;;4991813;28;19957;-77
2023/11/20 07:04:38;;;;;;;;;;;;;;;;;;4976147;28;20350;-78
2023/11/20 07:07:04;;;;;;;;;;;;;;;;;;4977594;28;19914;-77
2023/11/20 07:09:30;;;;;;;;;;;;;;;;;;4991959;28;19942;-78
2023/11/20 07:11:58;;;;;;;;;;;;;;;;;;4991161;28;19918;-77
2023/11/20 07:14:24;;;;;;;;;;;;;;;;;;4991928;28;19913;-77
2023/11/20 07:16:50;;;;;;;;;;;;;;;;;;4975893;28;20412;-77
2023/11/20 07:19:15;;;;;;;;;;;;;;;;;;4975658;28;19914;-78
2023/11/20 07:21:44;;;;;;;;;;;;;;;;;;4975644;28;19969;-77
2023/11/20 07:24:09;;;;;;;;;;;;;;;;;;4975516;28;19921;-78
2023/11/20 07:26:35;;;;;;;;;;;;;;;;;;4974873;28;19925;-77
2023/11/20 07:29:03;;;;;;;;;;;;;;;;;;4976257;28;19920;-76
2023/11/20 07:31:29;;;;;;;;;;;;;;;;;;4975201;28;19977;-77
2023/11/20 07:33:54;;;;;;;;;;;;;;;;;;4976567;28;20411;-75
2023/11/20 07:36:20;;;;;;;;;;;;;;;;;;4958960;28;19914;-77
2023/11/20 07:38:47;;;;;;;;;;;;;;;;;;4959375;28;19914;-78
2023/11/20 07:41:12;;;;;;;;;;;;;;;;;;4975560;28;20362;-76
2023/11/20 07:43:37;;;;;;;;;;;;;;;;;;4976815;28;19980;-77
2023/11/20 07:46:04;;;;;;;;;;;;;;;;;;4976143;28;19957;-77
2023/11/20 07:48:32;;;;;;;;;;;;;;;;;;4976648;28;19914;-77
2023/11/20 07:50:58;;;;;;;;;;;;;;;;;;4959686;28;19914;-77
2023/11/20 07:53:24;;;;;;;;;;;;;;;;;;4977153;28;20294;-77
2023/11/20 07:55:50;;;;;;;;;;;;;;;;;;4977058;28;19918;-77
2023/11/20 07:58:19;;;;;;;;;;;;;;;;;;4984276;28;20277;-78
2023/11/20 08:00:45;;;;;;;;;;;;;;;;;;4995996;28;19915;-78
2023/11/20 08:03:12;;;;;;;;;;;;;;;;;;4998514;28;19974;-78
2023/11/20 08:05:37;;;;;;;;;;;;;;;;;;4981872;28;19906;-77
2023/11/20 08:08:03;;;;;;;;;;;;;;;;;;4997355;28;20017;-78
2023/11/20 08:10:28;;;;;;;;;;;;;;;;;;4980635;28;19941;-78
2023/11/20 08:12:57;;;;;;;;;;;;;;;;;;4994697;28;19964;-78
2023/11/20 08:15:22;;;;;;;;;;;;;;;;;;4980404;28;19914;-77
2023/11/20 08:17:48;;;;;;;;;;;;;;;;;;4975111;28;19926;-76
2023/11/20 08:20:13;;;;;;;;;;;;;;;;;;4975813;28;20389;-77
2023/11/20 08:22:41;;;;;;;;;;;;;;;;;;4958538;28;20487;-78
2023/11/20 08:25:10;;;;;;;;;;;;;;;;;;4990352;28;19918;-78
2023/11/20 08:27:37;;;;;;;;;;;;;;;;;;4990319;28;19922;-79
2023/11/20 08:30:03;;;;;;;;;;;;;;;;;;4975371;28;19918;-78
2023/11/20 08:32:29;;;;;;;;;;;;;;;;;;4974081;28;19960;-78
2023/11/20 08:34:54;;;;;;;;;;;;;;;;;;4975067;28;19914;-77
2023/11/20 08:37:20;;;;;;;;;;;;;;;;;;4973838;28;20316;-78
2023/11/20 08:39:47;;;;;;;;;;;;;;;;;;4973198;28;19914;-78
2023/11/20 08:42:12;;;;;;;;;;;;;;;;;;4974628;28;19914;-77
2023/11/20 08:44:41;;;;;;;;;;;;;;;;;;4973965;28;19914;-78
2023/11/20 08:47:06;;;;;;;;;;;;;;;;;;4974393;28;20460;-78
2023/11/20 08:49:32;;;;;;;;;;;;;;;;;;4975553;28;19917;-77
2023/11/20 08:51:59;;;;;;;;;;;;;;;;;;4973633;28;19944;-78
2023/11/20 08:54:25;;;;;;;;;;;;;;;;;;4975823;28;20404;-76
2023/11/20 08:56:52;;;;;;;;;;;;;;;;;;4974623;28;19915;-78
2023/11/20 08:59:18;;;;;;;;;;;;;;;;;;4975352;28;19923;-78
2023/11/20 09:01:48;;;;;;;;;;;;;;;;;;4973797;28;19939;-78
2023/11/20 09:04:15;;;;;;;;;;;;;;;;;;4973377;28;20061;-76
2023/11/20 09:06:45;;;;;;;;;;;;;;;;;;4957267;28;19914;-78
2023/11/20 09:09:16;;;;;;;;;;;;;;;;;;4972207;28;19914;-76
2023/11/20 09:11:44;;;;;;;;;;;;;;;;;;4974206;28;20000;-78
2023/11/20 09:14:11;;;;;;;;;;;;;;;;;;4974628;28;19934;-76
2023/11/20 09:16:37;;;;;;;;;;;;;;;;;;4973849;28;19978;-78
2023/11/20 09:19:02;;;;;;;;;;;;;;;;;;4974495;28;20412;-77
2023/11/20 09:21:29;;;;;;;;;;;;;;;;;;4974585;28;19961;-77
2023/11/20 09:23:57;;;;;;;;;;;;;;;;;;4958915;28;19914;-76
2023/11/20 09:26:22;;;;;;;;;;;;;;;;;;4973389;28;20392;-76
2023/11/20 09:28:49;;;;;;;;;;;;;;;;;;4973891;28;19914;-76
2023/11/20 09:31:14;;;;;;;;;;;;;;;;;;4972276;28;20389;-77
2023/11/20 09:33:40;;;;;;;;;;;;;;;;;;4974156;28;19969;-77
2023/11/20 09:36:05;;;;;;;;;;;;;;;;;;4973726;28;19910;-77
2023/11/20 09:38:31;;;;;;;;;;;;;;;;;;4973956;28;19997;-77
2023/11/20 09:41:01;;;;;;;;;;;;;;;;;;4976432;28;20017;-78
2023/11/20 09:43:34;;;;;;;;;;;;;;;;;;4973858;28;19914;-77
2023/11/20 09:46:01;;;;;;;;;;;;;;;;;;4960027;28;20288;-77
2023/11/20 09:48:33;;;;;;;;;;;;;;;;;;4976221;28;20420;-77
2023/11/20 09:50:59;;;;;;;;;;;;;;;;;;4976826;28;19921;-78
2023/11/20 09:53:24;;;;;;;;;;;;;;;;;;4976246;28;19922;-76
2023/11/20 09:55:49;;;;;;;;;;;;;;;;;;4976722;28;19925;-77
2023/11/20 09:58:16;;;;;;;;;;;;;;;;;;4975360;28;19949;-77
2023/11/20 10:00:44;;;;;;;;;;;;;;;;;;4977095;28;19914;-78
2023/11/20 10:03:09;;;;;;;;;;;;;;;;;;4977115;28;19925;-78
2023/11/20 10:05:37;;;;;;;;;;;;;;;;;;4977661;28;20241;-78
2023/11/20 10:08:11;;;;;;;;;;;;;;;;;;4961226;28;19972;-78
2023/11/20 10:10:38;;;;;;;;;;;;;;;;;;4961189;28;19918;-76
2023/11/20 10:13:04;;;;;;;;;;;;;;;;;;4976219;28;19918;-78
2023/11/20 10:15:30;;;;;;;;;;;;;;;;;;4976531;28;19915;-77
2023/11/20 10:17:55;;;;;;;;;;;;;;;;;;4978593;28;20009;-77
2023/11/20 10:20:23;;;;;;;;;;;;;;;;;;4978470;28;19915;-77
2023/11/20 10:22:53;;;;;;;;;;;;;;;;;;4976715;28;20353;-77
2023/11/20 10:25:21;;;;;;;;;;;;;;;;;;4976853;28;20396;-78
2023/11/20 10:27:48;;;;;;;;;;;;;;;;;;4978248;28;19910;-78
2023/11/20 10:30:13;;;;;;;;;;;;;;;;;;4982913;28;20005;-77
2023/11/20 10:32:39;;;;;;;;;;;;;;;;;;4984014;28;19918;-78
2023/11/20 10:35:08;;;;;;;;;;;;;;;;;;4984032;28;19914;-77
2023/11/20 10:37:35;;;;;;;;;;;;;;;;;;4989313;28;19938;-77
2023/11/20 10:40:00;;;;;;;;;;;;;;;;;;4985918;28;19914;-78
2023/11/20 10:42:28;;;;;;;;;;;;;;;;;;4994229;28;19930;-77
2023/11/20 10:44:59;;;;;;;;;;;;;;;;;;4996413;28;19915;-79
2023/11/20 10:47:25;;;;;;;;;;;;;;;;;;4999205;28;20065;-78
2023/11/20 10:49:50;;;;;;;;;;;;;;;;;;4999600;28;19902;-77
2023/11/20 10:52:25;;;;;;;;;;;;;;;;;;4953710;28;20539;-78
2023/11/20 10:54:53;;;;;;;;;;;;;;;;;;4961217;29;19981;-78
2023/11/20 10:57:19;;;;;;;;;;;;;;;;;;4964200;28;20358;-76
2023/11/20 10:59:45;;;;;;;;;;;;;;;;;;4960446;28;20394;-77
2023/11/20 11:02:11;;;;;;;;;;;;;;;;;;4941587;29;19942;-78
2023/11/20 11:04:39;;;;;;;;;;;;;;;;;;4956652;29;20132;-76
2023/11/20 11:07:05;;;;;;;;;;;;;;;;;;4957480;28;19953;-78
2023/11/20 11:09:34;;;;;;;;;;;;;;;;;;4956457;29;19921;-78
2023/11/20 11:12:01;;;;;;;;;;;;;;;;;;4956868;28;19941;-78
2023/11/20 11:14:27;;;;;;;;;;;;;;;;;;4956108;29;19911;-77
2023/11/20 11:16:52;;;;;;;;;;;;;;;;;;4957156;28;20392;-78
2023/11/20 11:19:17;;;;;;;;;;;;;;;;;;4955844;29;19921;-79
2023/11/20 11:21:43;;;;;;;;;;;;;;;;;;4957401;29;19918;-77
2023/11/20 11:24:08;;;;;;;;;;;;;;;;;;4974252;28;20328;-77
2023/11/20 11:26:33;;;;;;;;;;;;;;;;;;4975390;28;20373;-77
2023/11/20 11:28:59;;;;;;;;;;;;;;;;;;4974761;28;19941;-77
2023/11/20 11:31:28;;;;;;;;;;;;;;;;;;4976242;28;20037;-76
2023/11/20 11:33:53;;;;;;;;;;;;;;;;;;4976685;28;20027;-76
2023/11/20 11:36:20;;;;;;;;;;;;;;;;;;4976470;28;19914;-78
2023/11/20 11:38:45;;;;;;;;;;;;;;;;;;4976244;28;20339;-77
2023/11/20 11:41:13;;;;;;;;;;;;;;;;;;4975853;28;19921;-77
2023/11/20 11:43:39;;;;;;;;;;;;;;;;;;4976628;28;19961;-78
2023/11/20 11:48:34;;;;;;;;;;;;;;;;;;4956697;28;19922;-74
2023/11/20 11:50:59;;;;;;;;;;;;;;;;;;4972960;28;20266;-75
2023/11/20 11:53:27;;;;;;;;;;;;;;;;;;4935902;29;19919;-75
2023/11/20 11:55:53;;;;;;;;;;;;;;;;;;4922052;29;20251;-75
2023/11/20 11:58:18;;;;;;;;;;;;;;;;;;4937464;29;19922;-75
2023/11/20 12:00:46;;;;;;;;;;;;;;;;;;4936166;29;19915;-75
2023/11/20 12:03:12;;;;;;;;;;;;;;;;;;4951072;28;20305;-76
2023/11/20 12:05:37;;;;;;;;;;;;;;;;;;4936637;29;19918;-75
2023/11/20 12:08:03;;;;;;;;;;;;;;;;;;4921387;29;20454;-76
2023/11/20 12:10:28;;;;;;;;;;;;;;;;;;4939326;29;19923;-76
2023/11/20 12:12:55;;;;;;;;;;;;;;;;;;4937087;29;19926;-75
2023/11/20 12:15:21;;;;;;;;;;;;;;;;;;4921197;29;19958;-75
2023/11/20 12:17:48;;;;;;;;;;;;;;;;;;4935215;29;19914;-76
2023/11/20 12:20:13;;;;;;;;;;;;;;;;;;4937145;29;19915;-75
2023/11/20 12:22:39;;;;;;;;;;;;;;;;;;4948873;28;20003;-76
2023/11/20 12:25:05;;;;;;;;;;;;;;;;;;4955213;28;19937;-75
2023/11/20 12:27:31;;;;;;;;;;;;;;;;;;4942488;29;19937;-74
2023/11/20 12:29:57;;;;;;;;;;;;;;;;;;4938196;29;20358;-76
2023/11/20 12:32:22;;;;;;;;;;;;;;;;;;4945486;29;19918;-74
2023/11/20 12:34:48;;;;;;;;;;;;;;;;;;4957429;29;20310;-75
2023/11/20 12:37:13;;;;;;;;;;;;;;;;;;4955272;28;19961;-75
2023/11/20 12:39:38;;;;;;;;;;;;;;;;;;4938941;29;20013;-74
2023/11/20 12:42:05;;;;;;;;;;;;;;;;;;4955083;28;19921;-76
2023/11/20 12:44:32;;;;;;;;;;;;;;;;;;4954104;28;20301;-75
2023/11/20 12:46:57;;;;;;;;;;;;;;;;;;4955229;28;20325;-74
2023/11/20 12:49:23;;;;;;;;;;;;;;;;;;4955425;29;20053;-75
2023/11/20 12:51:49;;;;;;;;;;;;;;;;;;4954250;28;19914;-74
2023/11/20 12:54:14;;;;;;;;;;;;;;;;;;4969882;28;20042;-75
2023/11/20 12:56:40;;;;;;;;;;;;;;;;;;4955310;28;20018;-75
2023/11/20 12:59:06;;;;;;;;;;;;;;;;;;4954853;28;19910;-76
2023/11/20 13:01:31;;;;;;;;;;;;;;;;;;4954974;28;19915;-76
2023/11/20 13:04:00;;;;;;;;;;;;;;;;;;4938019;29;19925;-75
2023/11/20 13:06:25;;;;;;;;;;;;;;;;;;4955022;28;19915;-75
2023/11/20 13:08:51;;;;;;;;;;;;;;;;;;4953969;29;19921;-76
2023/11/20 13:11:18;;;;;;;;;;;;;;;;;;4953530;29;19961;-77
2023/11/20 13:13:44;;;;;;;;;;;;;;;;;;4953182;29;19922;-75
2023/11/20 13:16:09;;;;;;;;;;;;;;;;;;4952122;28;20017;-75
2023/11/20 13:18:35;;;;;;;;;;;;;;;;;;4953550;28;20014;-74
2023/11/20 13:21:00;;;;;;;;;;;;;;;;;;4953292;29;19910;-75
2023/11/20 13:23:25;;;;;;;;;;;;;;;;;;4954718;28;19994;-75
2023/11/20 13:25:54;;;;;;;;;;;;;;;;;;4952904;29;19945;-75
2023/11/20 13:28:20;;;;;;;;;;;;;;;;;;4957430;28;20065;-75
2023/11/20 13:30:46;;;;;;;;;;;;;;;;;;4953209;28;20370;-75
2023/11/20 13:33:11;;;;;;;;;;;;;;;;;;4954580;28;19926;-75
2023/11/20 13:35:39;;;;;;;;;;;;;;;;;;4954775;28;20036;-74
2023/11/20 13:38:05;;;;;;;;;;;;;;;;;;4937625;29;20373;-74
2023/11/20 13:40:30;;;;;;;;;;;;;;;;;;4954570;29;19958;-75
2023/11/20 13:42:56;;;;;;;;;;;;;;;;;;4954005;28;19946;-75
2023/11/20 13:45:21;;;;;;;;;;;;;;;;;;4953220;28;19937;-75
2023/11/20 13:47:47;;;;;;;;;;;;;;;;;;4952951;28;20005;-75
2023/11/20 13:50:12;;;;;;;;;;;;;;;;;;4954031;29;19921;-75
2023/11/20 13:52:37;;;;;;;;;;;;;;;;;;4953558;28;19919;-75
2023/11/20 13:55:04;;;;;;;;;;;;;;;;;;4953813;28;19914;-75
2023/11/20 13:57:29;;;;;;;;;;;;;;;;;;4953507;28;19961;-76
2023/11/20 13:59:56;;;;;;;;;;;;;;;;;;4960355;28;19926;-75
2023/11/20 14:02:21;;;;;;;;;;;;;;;;;;4952087;28;19911;-75
2023/11/20 14:04:50;;;;;;;;;;;;;;;;;;4944595;29;19922;-74
2023/11/20 14:07:18;;;;;;;;;;;;;;;;;;4950129;28;19962;-74
2023/11/20 14:09:45;;;;;;;;;;;;;;;;;;4935203;29;19915;-74
2023/11/20 14:12:11;;;;;;;;;;;;;;;;;;4951988;28;20297;-75
2023/11/20 14:14:36;;;;;;;;;;;;;;;;;;4953918;28;20415;-75
2023/11/20 14:17:05;;;;;;;;;;;;;;;;;;4951764;28;19914;-74
2023/11/20 14:19:30;;;;;;;;;;;;;;;;;;4949893;28;19915;-75
2023/11/20 14:21:59;;;;;;;;;;;;;;;;;;4952120;28;19918;-75
2023/11/20 14:24:25;;;;;;;;;;;;;;;;;;4951475;28;19917;-75
2023/11/20 14:26:51;;;;;;;;;;;;;;;;;;4950779;29;19919;-75
2023/11/20 14:29:16;;;;;;;;;;;;;;;;;;4945909;28;19918;-75
2023/11/20 14:31:42;;;;;;;;;;;;;;;;;;4962085;28;19914;-75
2023/11/20 14:34:09;;;;;;;;;;;;;;;;;;4954603;29;19969;-75
2023/11/20 14:36:35;;;;;;;;;;;;;;;;;;4955665;29;20449;-75
2023/11/20 14:39:00;;;;;;;;;;;;;;;;;;4956516;28;20234;-75
2023/11/20 14:41:26;;;;;;;;;;;;;;;;;;4951696;28;19922;-74
2023/11/20 14:43:52;;;;;;;;;;;;;;;;;;4969719;28;19919;-75
2023/11/20 14:46:17;;;;;;;;;;;;;;;;;;4955877;28;19918;-75
2023/11/20 14:48:43;;;;;;;;;;;;;;;;;;4936456;29;20013;-75
2023/11/20 14:51:09;;;;;;;;;;;;;;;;;;4955324;29;19982;-74
2023/11/20 14:53:37;;;;;;;;;;;;;;;;;;4987504;28;20353;-74
2023/11/20 14:56:06;;;;;;;;;;;;;;;;;;4956976;28;19998;-74
2023/11/20 14:58:34;;;;;;;;;;;;;;;;;;4957218;28;19922;-76
2023/11/20 15:01:00;;;;;;;;;;;;;;;;;;4970329;28;19923;-75
2023/11/20 15:03:27;;;;;;;;;;;;;;;;;;4957216;28;19915;-75
2023/11/20 15:05:53;;;;;;;;;;;;;;;;;;4957136;28;19910;-74
2023/11/20 15:08:18;;;;;;;;;;;;;;;;;;4956579;28;19921;-75
2023/11/20 15:10:44;;;;;;;;;;;;;;;;;;4971252;28;20355;-75
2023/11/20 15:13:10;;;;;;;;;;;;;;;;;;4971153;28;19923;-75
2023/11/20 15:15:36;;;;;;;;;;;;;;;;;;4955278;29;20192;-76
2023/11/20 15:18:01;;;;;;;;;;;;;;;;;;4956675;28;20334;-76
2023/11/20 15:20:27;;;;;;;;;;;;;;;;;;4955778;29;19914;-76
2023/11/20 15:22:53;;;;;;;;;;;;;;;;;;4971375;28;19993;-75
2023/11/20 15:25:21;;;;;;;;;;;;;;;;;;4971029;28;19930;-75
2023/11/20 15:27:47;;;;;;;;;;;;;;;;;;4956602;28;19915;-75
2023/11/20 15:30:15;;;;;;;;;;;;;;;;;;4956571;29;19914;-75
2023/11/20 15:32:40;;;;;;;;;;;;;;;;;;4956811;28;19919;-76
2023/11/20 15:35:06;;;;;;;;;;;;;;;;;;4938869;29;20361;-75
2023/11/20 15:37:31;;;;;;;;;;;;;;;;;;4939374;28;19962;-76
2023/11/20 15:39:57;;;;;;;;;;;;;;;;;;4948780;28;19927;-76
2023/11/20 15:42:22;;;;;;;;;;;;;;;;;;4955784;28;20192;-75
2023/11/20 15:44:48;;;;;;;;;;;;;;;;;;4943388;29;19919;-75
2023/11/20 15:47:13;;;;;;;;;;;;;;;;;;4931101;29;19919;-74
2023/11/20 15:49:39;;;;;;;;;;;;;;;;;;4953062;28;19945;-74
2023/11/20 15:52:04;;;;;;;;;;;;;;;;;;4940067;28;19921;-75
2023/11/20 15:54:30;;;;;;;;;;;;;;;;;;4970966;28;19915;-74
2023/11/20 15:56:55;;;;;;;;;;;;;;;;;;4956198;29;19914;-76
2023/11/20 15:59:21;;;;;;;;;;;;;;;;;;4954715;28;19914;-75
2023/11/20 16:01:47;;;;;;;;;;;;;;;;;;4954416;28;19924;-75
2023/11/20 16:04:12;;;;;;;;;;;;;;;;;;4969696;28;20001;-74
2023/11/20 16:06:38;;;;;;;;;;;;;;;;;;4938548;29;19914;-74
2023/11/20 16:09:04;;;;;;;;;;;;;;;;;;4954172;28;20354;-76
2023/11/20 16:11:29;;;;;;;;;;;;;;;;;;4955369;28;19914;-76
2023/11/20 16:13:55;;;;;;;;;;;;;;;;;;4953738;29;19918;-76
2023/11/20 16:16:24;;;;;;;;;;;;;;;;;;4954881;29;19910;-76
2023/11/20 16:18:49;;;;;;;;;;;;;;;;;;4936931;29;19971;-75
2023/11/20 16:21:15;;;;;;;;;;;;;;;;;;4936970;29;19919;-76
2023/11/20 16:23:41;;;;;;;;;;;;;;;;;;4943702;29;20386;-75
2023/11/20 16:26:07;;;;;;;;;;;;;;;;;;4959505;28;20397;-75
2023/11/20 16:28:32;;;;;;;;;;;;;;;;;;4955536;28;19914;-76
2023/11/20 16:30:58;;;;;;;;;;;;;;;;;;4915408;29;20346;-76
2023/11/20 16:33:23;;;;;;;;;;;;;;;;;;4935997;29;20302;-75
2023/11/20 16:35:49;;;;;;;;;;;;;;;;;;4935977;29;19919;-75
2023/11/20 16:38:14;;;;;;;;;;;;;;;;;;4938660;29;19910;-76
2023/11/20 16:40:40;;;;;;;;;;;;;;;;;;4937731;29;19939;-76